الصفحة الرئيسية
METAR-TAF:

METAR-TAF

مطار :

أوسييك, كرواتيا

دائرة عرض: 45-27N, خط طول: 018-48E, ارتفاع: 88 متر

مراقبة الطقس الحالي

تاريخ ووقت الإصدار 29 دقيقة قبل الساعة 00:00UTC
ريح 6 عقدة من الغرب
درجة الحرارة 6°درجة مئوية
الرطوبة 75%
ضغط 1012 hPa
الرؤية 10 كم أو أكثر
الغيوم لا تقل 1500 م ولا وجود لمزنة ركامية السحاب الأسود

METAR: LDOS 290000Z 27006KT CAVOK 06/02 Q1012

زمن: 01:29 (00:29 UTC)

توقعات

تاريخ ووقت الإصدار 1ساعة و 4 دقيقة قبل الساعة 23:25UTC
التوقعات صالحة من29 الساعة 00 UTC إلى 30 الساعة 00 UTC
ريح 5 عقدة من الغرب/الشمال الغربي
الرؤية 10 كم أو أكثر
الغيوم لا تقل 1500 م ولا وجود لمزنة ركامية السحاب الأسود
أصبح
من 29 الساعة 06 UTC إلى 29 الساعة 08 UTC
ريح 10 عقدة من الشمال الغربي

TAF: LDOS 282325Z 2900/3000 29005KT CAVOK TX18/2914Z TN05/2905Z BECMG 2906/2908 32010KT

أرصاد الطقس والتوقعات من أكثر من 4000 مطار (تقارير الطقس للمطار METAR والتنبؤ بالطقس بالمطارTAF).

المحطات المتاحة هي النقط الصفراء والحمراء على الخريطة.

حرك المؤشر فوق النقطة لمعرفة اسم المحطة.

ثم انقر لمعرفة أرصاد وتوقعات الطقس.

لتغيير الخارطة: اضغط على الأزرار الخضراء مع رمز الصليب الأسود للتكبير. على الزر الأخضر مع شرطة للتصغير، أو على الأسهم الخضراء للخرائط المجاورة.


METAR-TAF: